Gillette, WY

11:02 AM MDT on August 27, 2014 (GMT -0600)
Johnson County | Change Station
CLOSE
Current Station
Airport
Location: Buffalo,
Elevation: 4967 ft
Nearby Weather Stations

Elev 4967 ft 44.38 °N, 106.72 °W | Updated 9 minutes ago

Clear
Clear
71 °F
Feels Like 71 °F
N
10
Wind Variable Wind from SSE

Today
High -- | Low -- °F
--% Chance of Precip.
Yesterday
High -- | Low -- °F
Precip. -- in
6:19 AM 7:48 PM
Waxing Crescent, 4% visible
Pressure 30.05 in
Visibility 10.0 miles
Clouds Clear
Dew Point 49 °F
Humidity 45%
Rainfall 0.00 in
Snow Depth Not available.
UV 7 out of 12
Pollen 8.30 out of 12
Air Quality Not available.
Flu Activity Not available.
METAR KBYG 271653Z AUTO 15009KT 10SM CLR 22/09 A3019 RMK AO2 SLP176 T02170094

More Conditions Fewer Conditions

Pressure 30.05 in
Visibility 10.0 miles
Clouds Clear
Dew Point 49 °F
Humidity 45%
Rainfall 0.00 in
Snow Depth Not available.
UV 7 out of 12
Pollen 8.30 out of 12
Air Quality Not available.
Flu Activity Not available.
METAR KBYG 271653Z AUTO 15009KT 10SM CLR 22/09 A3019 RMK AO2 SLP176 T02170094

More Conditions Fewer Conditions

10-Day Weather Forecast

Almanac

Astronomy

Aug. 27, 2014 Rise Set
Actual Time 6:19 AM MDT 7:48 PM MDT
Civil Twilight 5:48 AM MDT 8:18 PM MDT
Nautical Twilight 5:12 AM MDT 8:55 PM MDT
Astronomical Twilight 4:32 AM MDT 9:34 PM MDT
Moon 8:24 AM MDT 8:34 PM MDT
Length of Visible Light 14h 29m
Length of Day
13h 28m
Tomorrow will be 2m 55s shorter.
Waxing Crescent, 4% of the Moon is Illuminated
Today
Waxing Crescent
Sep 2
First Quarter
Sep 8
Full
Sep 15
Last Quarter
Sep 24
New

Today's Extremes

State Highs State Lows

Community

WunderPhotos

Upload Photos

1,747,727 photos uploaded!

Nearby

Snow Depth

Station Depth Elevation
Cole Canyon 0 in 5910 ft
Hansen Sawmill 0 in 8360 ft
Powder River Pass 0 in 9480 ft
Dome Lake 0 in 8880 ft
Sucker Creek 0 in 8880 ft

Earthquake Activity

City Distance Mag. Time & Date
No recent earthquake activity has been reported nearby.
Minimum magnitude displayed is 2.5.

Coastal Water Temperatures

Place Temperature
No Stations Reporting

Nearby Weather Stations